Terminal Aerodrome Forecast
Issued by NWS

Home | Current Version | Previous Version | Text Only | Print | Product List | Glossary On
Versions: 1 2 3 4 5 6 7 8 9 10 11 12 13 14 15 16 17 18 19
000
FTUS44 KLIX 261914 AAA
TAFHUM
TAF AMD
KHUM 261914Z 2619/2718 14012KT P6SM SCT030
     FM262300 15011KT P6SM FEW025
     FM270200 14006KT P6SM SCT090
     FM271500 15010KT P6SM BKN020=

USA.gov is the U.S. government's official web portal to all federal, state and local government web resources and services.